Pays
Station

 

Conditions  météo  pour  Shemya, Eareckson As  -  Etats-Unis    Etats-Unis

  
2 °C
    
 
 

METAR pour Shemya, Eareckson As :

PASY 232059Z 01009KT 10SM FEW020 OVC039 02/M01 A3021 RMK AO2A SLP233 T00211008 51001 $

 

Voici le bulletin pour Shemya, Eareckson As - Etats-Unis.
 
Le bulletin a été fait il y a une heure et 2 minutes, à 20:59 UTC .
Le vent soufflait à la vitesse de 4.6 mètres par seconde de Nord (010°).
 
La température était de 2 °C, avec un point de rosée à -1 °C.
La température ressentie était de -3 °C.
 
La pression atmosphérique était de 1023 hPa.
L'humidité relative était de 80.5%.
 
Il y avait 1 à 2/8ème de nébulosité à une hauteur de 610 mètres. Le ciel était nuageux à partir d'une hauteur de 1189 mètres
 
La visibilité globale était de 16.1 kilomètres.
 

 
 
 

Pays :   A   B   C   D   E   F   G   H   I   J   K   L   M   N   O   P   Q   R   S   T   U   V   W   Y   Z

 

Partenaires :  Info Météo avec Met'info
Météo Marine avec MeteoMarine.net
Infos Site  |  Infos Légales  |  Crédits  |  Confidentialité
Contactez-nous  |  Ajouter aux favoris
© 2013-2019 METAR - Tous droits réservés